Latest Weather Observations for Outer Harbor (Black Pole)

IDS60901

Issued at 9:21 am CDT Monday 27 March 2017 (issued every 10 minutes, with the page automatically refreshed every 10 minutes)

About weather observations | Map of Adelaide area stations | Latest observations for Adelaide area | Other Formats
Station Details ID: 023052 Name: BLACK POLE Lat: -34.73 Lon: 138.47 Height: 6.27 m
Data from the previous 72 hours. | See also: Recent months for locations in South Australia
Date/Time
CDT
Temp
°C
App
Temp
°C
Dew
Point
°C
Rel
Hum
%
Delta-T
°C
Wind Press
QNH
hPa
Press
MSL
hPa
Rain since
9am
mm
Dir  Spd
km/h
Gust
km/h
Spd
kts
Gust
kts
27/09:00am - - - - - WSW 37 43 20 23 - - -
27/08:30am - - - - - W 32 37 17 20 - - -
27/08:00am - - - - - W 26 30 14 16 - - -
27/07:30am - - - - - WSW 20 28 11 15 - - -
27/07:00am - - - - - WSW 22 26 12 14 - - -
27/06:30am - - - - - WSW 24 28 13 15 - - -
27/06:00am - - - - - SW 33 37 18 20 - - -
27/05:30am - - - - - WSW 33 44 18 24 - - -
27/05:00am - - - - - SW 35 44 19 24 - - -
27/04:30am - - - - - WSW 41 50 22 27 - - -
27/04:00am - - - - - WSW 44 56 24 30 - - -
27/03:30am - - - - - WSW 48 65 26 35 - - -
27/03:26am - - - - - WSW 43 65 23 35 - - -
27/03:24am - - - - - W 41 59 22 32 - - -
27/03:10am - - - - - NW 37 52 20 28 - - -
27/03:00am - - - - - NW 26 33 14 18 - - -
27/02:30am - - - - - NNE 26 32 14 17 - - -
27/02:00am - - - - - NE 30 43 16 23 - - -
27/01:30am - - - - - NE 35 39 19 21 - - -
27/01:00am - - - - - NE 37 43 20 23 - - -
27/12:30am - - - - - NE 37 43 20 23 - - -
27/12:00am - - - - - NE 35 43 19 23 - - -
 
Date/Time
CDT
Temp
°C
App
Temp
°C
Dew
Point
°C
Rel
Hum
%
Delta-T
°C
Wind Press
QNH
hPa
Press
MSL
hPa
Rain since
9am
mm
Dir  Spd
km/h
Gust
km/h
Spd
kts
Gust
kts
26/11:30pm - - - - - NE 35 41 19 22 - - -
26/11:00pm - - - - - NE 35 41 19 22 - - -
26/10:30pm - - - - - NE 37 44 20 24 - - -
26/10:00pm - - - - - NE 32 37 17 20 - - -
26/09:30pm - - - - - NE 30 35 16 19 - - -
26/09:00pm - - - - - ENE 26 32 14 17 - - -
26/08:30pm - - - - - ENE 22 24 12 13 - - -
26/08:00pm - - - - - ENE 22 24 12 13 - - -
26/07:30pm - - - - - ENE 20 22 11 12 - - -
26/07:00pm - - - - - ENE 20 24 11 13 - - -
26/06:30pm - - - - - ENE 22 26 12 14 - - -
26/06:00pm - - - - - NNE 6 9 3 5 - - -
26/05:30pm - - - - - SE 9 11 5 6 - - -
26/05:00pm - - - - - S 15 17 8 9 - - -
26/04:30pm - - - - - S 19 20 10 11 - - -
26/04:00pm - - - - - S 19 20 10 11 - - -
26/03:30pm - - - - - S 17 20 9 11 - - -
26/03:00pm - - - - - S 13 15 7 8 - - -
26/02:30pm - - - - - SSW 15 17 8 9 - - -
26/02:00pm - - - - - SW 15 17 8 9 - - -
26/01:30pm - - - - - SW 11 15 6 8 - - -
26/01:00pm - - - - - SW 11 15 6 8 - - -
26/12:30pm - - - - - SW 7 9 4 5 - - -
26/12:00pm - - - - - SW 11 15 6 8 - - -
26/11:30am - - - - - SW 9 11 5 6 - - -
26/11:00am - - - - - SSW 13 15 7 8 - - -
26/10:30am - - - - - SW 6 9 3 5 - - -
26/10:00am - - - - - NE 6 7 3 4 - - -
26/09:30am - - - - - NNE 11 11 6 6 - - -
26/09:00am - - - - - ENE 7 9 4 5 - - -
26/08:30am - - - - - ENE 13 15 7 8 - - -
26/08:00am - - - - - ENE 15 17 8 9 - - -
26/07:30am - - - - - ENE 17 20 9 11 - - -
26/07:00am - - - - - NE 19 22 10 12 - - -
26/06:30am - - - - - NE 22 24 12 13 - - -
26/06:00am - - - - - NE 17 20 9 11 - - -
26/05:30am - - - - - NE 11 13 6 7 - - -
26/05:00am - - - - - NE 6 7 3 4 - - -
26/04:30am - - - - - NE 4 6 2 3 - - -
26/04:00am - - - - - NE 4 6 2 3 - - -
26/03:30am - - - - - ENE 6 7 3 4 - - -
26/03:00am - - - - - NE 4 7 2 4 - - -
26/02:30am - - - - - NE 4 6 2 3 - - -
26/02:00am - - - - - NNE 2 2 1 1 - - -
26/01:30am - - - - - NE 4 6 2 3 - - -
26/01:00am - - - - - NE 4 6 2 3 - - -
26/12:30am - - - - - N 4 4 2 2 - - -
26/12:00am - - - - - NNW 4 6 2 3 - - -
 
Date/Time
CDT
Temp
°C
App
Temp
°C
Dew
Point
°C
Rel
Hum
%
Delta-T
°C
Wind Press
QNH
hPa
Press
MSL
hPa
Rain since
9am
mm
Dir  Spd
km/h
Gust
km/h
Spd
kts
Gust
kts
25/11:30pm - - - - - W 6 6 3 3 - - -
25/11:00pm - - - - - W 4 6 2 3 - - -
25/10:30pm - - - - - WSW 6 7 3 4 - - -
25/10:00pm - - - - - SW 6 7 3 4 - - -
25/09:30pm - - - - - SSW 6 7 3 4 - - -
25/09:00pm - - - - - SSE 6 7 3 4 - - -
25/08:30pm - - - - - S 9 11 5 6 - - -
25/08:00pm - - - - - S 9 11 5 6 - - -
25/07:30pm - - - - - SSE 19 24 10 13 - - -
25/07:00pm - - - - - S 19 22 10 12 - - -
25/06:30pm - - - - - SSW 15 17 8 9 - - -
25/06:00pm - - - - - S 13 17 7 9 - - -
25/05:30pm - - - - - SW 17 19 9 10 - - -
25/05:00pm - - - - - SSW 20 22 11 12 - - -
25/04:30pm - - - - - SW 13 13 7 7 - - -
25/04:00pm - - - - - SW 17 19 9 10 - - -
25/03:30pm - - - - - SW 19 22 10 12 - - -
25/03:00pm - - - - - SSW 17 19 9 10 - - -
25/02:30pm - - - - - SW 13 17 7 9 - - -
25/02:00pm - - - - - SW 13 15 7 8 - - -
25/01:30pm - - - - - SSW 13 17 7 9 - - -
25/01:00pm - - - - - SW 15 17 8 9 - - -
25/12:30pm - - - - - SW 13 17 7 9 - - -
25/12:00pm - - - - - SSW 13 13 7 7 - - -
25/11:30am - - - - - SSW 11 13 6 7 - - -
25/11:00am - - - - - SSW 17 19 9 10 - - -
25/10:30am - - - - - WSW 2 4 1 2 - - -
25/10:00am - - - - - W 2 4 1 2 - - -
25/09:30am - - - - - WNW 2 4 1 2 - - -
25/09:00am - - - - - NE 4 7 2 4 - - -
25/08:30am - - - - - SSW 9 11 5 6 - - -
25/08:00am - - - - - SW 13 15 7 8 - - -
25/07:30am - - - - - NW 11 13 6 7 - - -
25/07:00am - - - - - NNW 9 11 5 6 - - -
25/06:30am - - - - - NNW 11 13 6 7 - - -
25/06:00am - - - - - NNW 17 17 9 9 - - -
25/05:30am - - - - - N 15 17 8 9 - - -
25/05:00am - - - - - NNE 15 19 8 10 - - -
25/04:30am - - - - - NE 17 17 9 9 - - -
25/04:00am - - - - - NE 15 17 8 9 - - -
25/03:30am - - - - - NE 15 17 8 9 - - -
25/03:00am - - - - - WSW 2 4 1 2 - - -
25/02:30am - - - - - W 7 9 4 5 - - -
25/02:00am - - - - - NW 9 9 5 5 - - -
25/01:30am - - - - - NNW 13 17 7 9 - - -
25/01:00am - - - - - NW 15 19 8 10 - - -
25/12:30am - - - - - NNE 13 15 7 8 - - -
25/12:00am - - - - - NE 13 15 7 8 - - -
 
Date/Time
CDT
Temp
°C
App
Temp
°C
Dew
Point
°C
Rel
Hum
%
Delta-T
°C
Wind Press
QNH
hPa
Press
MSL
hPa
Rain since
9am
mm
Dir  Spd
km/h
Gust
km/h
Spd
kts
Gust
kts
24/11:30pm - - - - - ENE 13 13 7 7 - - -
24/11:00pm - - - - - SSE 9 9 5 5 - - -
24/10:30pm - - - - - SSW 11 13 6 7 - - -
24/10:00pm - - - - - SSW 15 17 8 9 - - -
24/09:30pm - - - - - SSW 17 20 9 11 - - -
24/09:00pm - - - - - S 13 13 7 7 - - -
24/08:30pm - - - - - S 11 13 6 7 - - -
24/08:00pm - - - - - S 13 15 7 8 - - -
24/07:30pm - - - - - SSW 17 19 9 10 - - -
24/07:00pm - - - - - SSW 17 19 9 10 - - -
24/06:30pm - - - - - S 13 13 7 7 - - -
24/06:00pm - - - - - S 15 17 8 9 - - -
24/05:30pm - - - - - S 17 19 9 10 - - -
24/05:00pm - - - - - S 17 19 9 10 - - -
24/04:30pm - - - - - S 20 22 11 12 - - -
24/04:00pm - - - - - S 17 19 9 10 - - -
24/03:30pm - - - - - SW 15 17 8 9 - - -
24/03:00pm - - - - - WSW 19 22 10 12 - - -
24/02:30pm - - - - - WSW 20 22 11 12 - - -
24/02:00pm - - - - - WSW 20 24 11 13 - - -
24/01:30pm - - - - - E 9 13 5 7 - - -
24/01:00pm - - - - - ENE 11 13 6 7 - - -
24/12:30pm - - - - - NE 13 19 7 10 - - -
24/12:00pm - - - - - NE 19 22 10 12 - - -
24/11:30am - - - - - NE 22 26 12 14 - - -
24/11:00am - - - - - NE 22 28 12 15 - - -
24/10:30am - - - - - NE 24 26 13 14 - - -
24/10:00am - - - - - NE 22 28 12 15 - - -
24/09:30am - - - - - NE 22 30 12 16 - - -

Latest Capital City Observations: Canberra | Sydney | Melbourne | Brisbane | Adelaide | Perth | Hobart | Darwin

Other Formats:

Comma delimited format used in spreadsheet applications
http://www.bom.gov.au/fwo/IDS60901/IDS60901.95675.axf

JavaScript Object Notation format (JSON) in row-major order
http://www.bom.gov.au/fwo/IDS60901/IDS60901.95675.json